sensor_id;sensor_type;location;lat;lon;timestamp;P1;durP1;ratioP1;P2;durP2;ratioP2
14141;SDS011;7151;52.246;4.820;2024-01-30T00:02:18;8.00;;;6.10;;
14141;SDS011;7151;52.246;4.820;2024-01-30T00:04:44;9.93;;;6.47;;
14141;SDS011;7151;52.246;4.820;2024-01-30T00:07:09;10.27;;;6.87;;
14141;SDS011;7151;52.246;4.820;2024-01-30T00:09:38;10.00;;;6.93;;
14141;SDS011;7151;52.246;4.820;2024-01-30T00:12:06;9.37;;;6.70;;
14141;SDS011;7151;52.246;4.820;2024-01-30T00:14:32;11.10;;;6.50;;
14141;SDS011;7151;52.246;4.820;2024-01-30T00:17:00;11.00;;;6.53;;
14141;SDS011;7151;52.246;4.820;2024-01-30T00:19:25;8.43;;;7.23;;
14141;SDS011;7151;52.246;4.820;2024-01-30T00:21:51;7.50;;;5.77;;
14141;SDS011;7151;52.246;4.820;2024-01-30T00:24:17;7.90;;;6.53;;
14141;SDS011;7151;52.246;4.820;2024-01-30T00:26:42;9.77;;;6.43;;
14141;SDS011;7151;52.246;4.820;2024-01-30T00:29:08;9.17;;;6.37;;
14141;SDS011;7151;52.246;4.820;2024-01-30T00:31:36;10.07;;;6.17;;
14141;SDS011;7151;52.246;4.820;2024-01-30T00:34:02;10.10;;;6.20;;
14141;SDS011;7151;52.246;4.820;2024-01-30T00:36:28;10.00;;;5.63;;
14141;SDS011;7151;52.246;4.820;2024-01-30T00:38:58;9.47;;;6.13;;
14141;SDS011;7151;52.246;4.820;2024-01-30T00:41:23;9.93;;;6.40;;
14141;SDS011;7151;52.246;4.820;2024-01-30T00:43:49;8.53;;;5.77;;
14141;SDS011;7151;52.246;4.820;2024-01-30T00:46:15;7.80;;;6.33;;
14141;SDS011;7151;52.246;4.820;2024-01-30T00:48:40;7.47;;;5.40;;
14141;SDS011;7151;52.246;4.820;2024-01-30T00:51:06;7.83;;;5.67;;
14141;SDS011;7151;52.246;4.820;2024-01-30T00:53:31;6.27;;;4.73;;
14141;SDS011;7151;52.246;4.820;2024-01-30T00:55:57;8.80;;;5.70;;
14141;SDS011;7151;52.246;4.820;2024-01-30T00:58:23;6.57;;;5.43;;
14141;SDS011;7151;52.246;4.820;2024-01-30T01:00:48;6.80;;;4.67;;
14141;SDS011;7151;52.246;4.820;2024-01-30T01:03:14;8.07;;;5.53;;
14141;SDS011;7151;52.246;4.820;2024-01-30T01:05:39;9.50;;;5.00;;
14141;SDS011;7151;52.246;4.820;2024-01-30T01:08:07;7.33;;;6.30;;
14141;SDS011;7151;52.246;4.820;2024-01-30T01:10:34;7.37;;;5.27;;
14141;SDS011;7151;52.246;4.820;2024-01-30T01:12:59;6.80;;;5.23;;
14141;SDS011;7151;52.246;4.820;2024-01-30T01:15:25;8.53;;;5.77;;
14141;SDS011;7151;52.246;4.820;2024-01-30T01:17:51;7.83;;;4.83;;
14141;SDS011;7151;52.246;4.820;2024-01-30T01:20:16;7.80;;;5.30;;
14141;SDS011;7151;52.246;4.820;2024-01-30T01:22:42;7.73;;;5.20;;
14141;SDS011;7151;52.246;4.820;2024-01-30T01:25:08;7.20;;;4.83;;
14141;SDS011;7151;52.246;4.820;2024-01-30T01:27:35;10.73;;;5.87;;
14141;SDS011;7151;52.246;4.820;2024-01-30T01:30:06;6.53;;;4.83;;
14141;SDS011;7151;52.246;4.820;2024-01-30T01:32:43;8.97;;;5.30;;
14141;SDS011;7151;52.246;4.820;2024-01-30T01:35:15;8.70;;;5.17;;
14141;SDS011;7151;52.246;4.820;2024-01-30T01:37:40;10.00;;;5.60;;
14141;SDS011;7151;52.246;4.820;2024-01-30T01:40:06;6.00;;;5.00;;
14141;SDS011;7151;52.246;4.820;2024-01-30T01:42:35;6.43;;;5.47;;
14141;SDS011;7151;52.246;4.820;2024-01-30T01:45:01;6.77;;;5.20;;
14141;SDS011;7151;52.246;4.820;2024-01-30T01:47:26;7.30;;;5.83;;
14141;SDS011;7151;52.246;4.820;2024-01-30T01:49:52;7.90;;;4.90;;
14141;SDS011;7151;52.246;4.820;2024-01-30T01:52:18;6.37;;;4.63;;
14141;SDS011;7151;52.246;4.820;2024-01-30T01:54:43;7.33;;;5.40;;
14141;SDS011;7151;52.246;4.820;2024-01-30T01:57:09;8.10;;;5.07;;
14141;SDS011;7151;52.246;4.820;2024-01-30T01:59:38;6.80;;;4.93;;
14141;SDS011;7151;52.246;4.820;2024-01-30T02:02:04;6.13;;;4.80;;
14141;SDS011;7151;52.246;4.820;2024-01-30T02:04:32;7.83;;;4.50;;
14141;SDS011;7151;52.246;4.820;2024-01-30T02:06:58;7.33;;;4.93;;
14141;SDS011;7151;52.246;4.820;2024-01-30T02:09:24;6.40;;;4.97;;
14141;SDS011;7151;52.246;4.820;2024-01-30T02:11:51;8.47;;;6.27;;
14141;SDS011;7151;52.246;4.820;2024-01-30T02:14:17;6.10;;;4.77;;
14141;SDS011;7151;52.246;4.820;2024-01-30T02:16:43;7.63;;;5.40;;
14141;SDS011;7151;52.246;4.820;2024-01-30T02:19:08;9.27;;;5.53;;
14141;SDS011;7151;52.246;4.820;2024-01-30T02:21:34;8.67;;;5.23;;
14141;SDS011;7151;52.246;4.820;2024-01-30T02:24:00;8.23;;;4.60;;
14141;SDS011;7151;52.246;4.820;2024-01-30T02:26:27;7.30;;;5.23;;
14141;SDS011;7151;52.246;4.820;2024-01-30T02:28:53;7.83;;;5.20;;
14141;SDS011;7151;52.246;4.820;2024-01-30T02:31:19;8.03;;;5.10;;
14141;SDS011;7151;52.246;4.820;2024-01-30T02:33:44;6.40;;;5.03;;
14141;SDS011;7151;52.246;4.820;2024-01-30T02:36:13;6.73;;;4.90;;
14141;SDS011;7151;52.246;4.820;2024-01-30T02:38:40;5.57;;;4.50;;
14141;SDS011;7151;52.246;4.820;2024-01-30T02:41:06;8.77;;;5.20;;
14141;SDS011;7151;52.246;4.820;2024-01-30T02:43:31;7.60;;;4.50;;
14141;SDS011;7151;52.246;4.820;2024-01-30T02:45:57;7.57;;;4.93;;
14141;SDS011;7151;52.246;4.820;2024-01-30T02:48:24;5.00;;;4.10;;
14141;SDS011;7151;52.246;4.820;2024-01-30T02:50:50;7.07;;;5.17;;
14141;SDS011;7151;52.246;4.820;2024-01-30T02:53:16;6.73;;;5.00;;
14141;SDS011;7151;52.246;4.820;2024-01-30T02:55:41;5.80;;;4.70;;
14141;SDS011;7151;52.246;4.820;2024-01-30T02:58:07;6.80;;;4.93;;
14141;SDS011;7151;52.246;4.820;2024-01-30T03:00:36;8.07;;;5.20;;
14141;SDS011;7151;52.246;4.820;2024-01-30T03:03:01;6.97;;;5.20;;
14141;SDS011;7151;52.246;4.820;2024-01-30T03:05:27;6.57;;;5.03;;
14141;SDS011;7151;52.246;4.820;2024-01-30T03:07:53;6.63;;;4.90;;
14141;SDS011;7151;52.246;4.820;2024-01-30T03:10:18;8.00;;;5.73;;
14141;SDS011;7151;52.246;4.820;2024-01-30T03:12:44;8.53;;;5.17;;
14141;SDS011;7151;52.246;4.820;2024-01-30T03:15:09;7.87;;;4.43;;
14141;SDS011;7151;52.246;4.820;2024-01-30T03:17:35;6.70;;;4.27;;
14141;SDS011;7151;52.246;4.820;2024-01-30T03:20:02;7.07;;;4.57;;
14141;SDS011;7151;52.246;4.820;2024-01-30T03:22:29;6.43;;;4.43;;
14141;SDS011;7151;52.246;4.820;2024-01-30T03:24:54;5.87;;;4.70;;
14141;SDS011;7151;52.246;4.820;2024-01-30T03:27:20;7.00;;;4.80;;
14141;SDS011;7151;52.246;4.820;2024-01-30T03:29:45;10.10;;;4.83;;
14141;SDS011;7151;52.246;4.820;2024-01-30T03:32:11;4.73;;;4.17;;
14141;SDS011;7151;52.246;4.820;2024-01-30T03:34:37;6.90;;;5.00;;
14141;SDS011;7151;52.246;4.820;2024-01-30T03:37:02;8.73;;;5.50;;
14141;SDS011;7151;52.246;4.820;2024-01-30T03:39:28;7.13;;;4.73;;
14141;SDS011;7151;52.246;4.820;2024-01-30T03:41:53;5.77;;;4.40;;
14141;SDS011;7151;52.246;4.820;2024-01-30T03:44:19;8.47;;;4.83;;
14141;SDS011;7151;52.246;4.820;2024-01-30T03:46:45;8.07;;;5.03;;
14141;SDS011;7151;52.246;4.820;2024-01-30T03:49:11;7.90;;;5.00;;
14141;SDS011;7151;52.246;4.820;2024-01-30T03:51:36;6.57;;;4.37;;
14141;SDS011;7151;52.246;4.820;2024-01-30T03:54:02;7.03;;;4.70;;
14141;SDS011;7151;52.246;4.820;2024-01-30T03:56:28;5.40;;;4.17;;
14141;SDS011;7151;52.246;4.820;2024-01-30T03:58:53;8.33;;;4.93;;
14141;SDS011;7151;52.246;4.820;2024-01-30T04:01:19;7.57;;;4.60;;
14141;SDS011;7151;52.246;4.820;2024-01-30T04:03:44;6.73;;;4.50;;
14141;SDS011;7151;52.246;4.820;2024-01-30T04:06:10;6.57;;;4.83;;
14141;SDS011;7151;52.246;4.820;2024-01-30T04:08:36;7.93;;;4.77;;
14141;SDS011;7151;52.246;4.820;2024-01-30T04:11:05;8.60;;;4.80;;
14141;SDS011;7151;52.246;4.820;2024-01-30T04:13:31;6.37;;;4.27;;
14141;SDS011;7151;52.246;4.820;2024-01-30T04:15:58;7.47;;;4.40;;
14141;SDS011;7151;52.246;4.820;2024-01-30T04:18:26;6.10;;;4.50;;
14141;SDS011;7151;52.246;4.820;2024-01-30T04:20:52;7.43;;;4.40;;
14141;SDS011;7151;52.246;4.820;2024-01-30T04:23:17;5.90;;;4.50;;
14141;SDS011;7151;52.246;4.820;2024-01-30T04:25:43;5.93;;;4.30;;
14141;SDS011;7151;52.246;4.820;2024-01-30T04:28:09;6.70;;;4.40;;
14141;SDS011;7151;52.246;4.820;2024-01-30T04:30:38;5.93;;;4.67;;
14141;SDS011;7151;52.246;4.820;2024-01-30T04:33:03;7.87;;;4.80;;
14141;SDS011;7151;52.246;4.820;2024-01-30T04:35:29;6.83;;;4.37;;
14141;SDS011;7151;52.246;4.820;2024-01-30T04:37:55;6.77;;;4.63;;
14141;SDS011;7151;52.246;4.820;2024-01-30T04:40:21;6.53;;;4.40;;
14141;SDS011;7151;52.246;4.820;2024-01-30T04:42:46;7.73;;;5.30;;
14141;SDS011;7151;52.246;4.820;2024-01-30T04:45:12;7.13;;;5.07;;
14141;SDS011;7151;52.246;4.820;2024-01-30T04:47:37;6.23;;;4.30;;
14141;SDS011;7151;52.246;4.820;2024-01-30T04:50:04;8.70;;;4.83;;
14141;SDS011;7151;52.246;4.820;2024-01-30T04:52:31;9.47;;;5.77;;
14141;SDS011;7151;52.246;4.820;2024-01-30T04:54:57;7.70;;;4.50;;
14141;SDS011;7151;52.246;4.820;2024-01-30T04:57:23;9.67;;;5.10;;
14141;SDS011;7151;52.246;4.820;2024-01-30T04:59:48;8.87;;;4.23;;
14141;SDS011;7151;52.246;4.820;2024-01-30T05:02:14;8.47;;;4.93;;
14141;SDS011;7151;52.246;4.820;2024-01-30T05:04:43;4.90;;;3.63;;
14141;SDS011;7151;52.246;4.820;2024-01-30T05:07:08;7.63;;;5.30;;
14141;SDS011;7151;52.246;4.820;2024-01-30T05:09:34;5.47;;;4.07;;
14141;SDS011;7151;52.246;4.820;2024-01-30T05:11:59;5.60;;;4.57;;
14141;SDS011;7151;52.246;4.820;2024-01-30T05:14:25;6.67;;;3.90;;
14141;SDS011;7151;52.246;4.820;2024-01-30T05:16:51;6.00;;;4.40;;
14141;SDS011;7151;52.246;4.820;2024-01-30T05:19:16;10.73;;;4.63;;
14141;SDS011;7151;52.246;4.820;2024-01-30T05:21:42;6.23;;;5.17;;
14141;SDS011;7151;52.246;4.820;2024-01-30T05:24:08;6.00;;;4.40;;
14141;SDS011;7151;52.246;4.820;2024-01-30T05:26:35;5.83;;;4.03;;
14141;SDS011;7151;52.246;4.820;2024-01-30T05:29:01;6.80;;;4.10;;
14141;SDS011;7151;52.246;4.820;2024-01-30T05:31:27;8.20;;;5.17;;
14141;SDS011;7151;52.246;4.820;2024-01-30T05:33:52;5.60;;;4.80;;
14141;SDS011;7151;52.246;4.820;2024-01-30T05:36:18;7.23;;;4.87;;
14141;SDS011;7151;52.246;4.820;2024-01-30T05:38:43;8.27;;;4.83;;
14141;SDS011;7151;52.246;4.820;2024-01-30T05:41:09;8.87;;;4.90;;
14141;SDS011;7151;52.246;4.820;2024-01-30T05:43:34;7.47;;;5.20;;
14141;SDS011;7151;52.246;4.820;2024-01-30T05:46:00;9.23;;;4.87;;
14141;SDS011;7151;52.246;4.820;2024-01-30T05:48:25;5.07;;;4.17;;
14141;SDS011;7151;52.246;4.820;2024-01-30T05:50:51;7.47;;;4.30;;
14141;SDS011;7151;52.246;4.820;2024-01-30T05:53:17;7.37;;;4.40;;
14141;SDS011;7151;52.246;4.820;2024-01-30T05:55:42;7.07;;;4.93;;
14141;SDS011;7151;52.246;4.820;2024-01-30T05:58:08;5.37;;;4.87;;
14141;SDS011;7151;52.246;4.820;2024-01-30T06:00:37;6.07;;;3.93;;
14141;SDS011;7151;52.246;4.820;2024-01-30T06:03:02;6.33;;;4.47;;
14141;SDS011;7151;52.246;4.820;2024-01-30T06:05:28;7.10;;;4.47;;
14141;SDS011;7151;52.246;4.820;2024-01-30T06:07:56;4.87;;;4.37;;
14141;SDS011;7151;52.246;4.820;2024-01-30T06:10:22;7.20;;;4.80;;
14141;SDS011;7151;52.246;4.820;2024-01-30T06:12:47;7.47;;;4.83;;
14141;SDS011;7151;52.246;4.820;2024-01-30T06:15:13;6.87;;;4.47;;
14141;SDS011;7151;52.246;4.820;2024-01-30T06:17:39;6.77;;;4.53;;
14141;SDS011;7151;52.246;4.820;2024-01-30T06:20:05;7.80;;;4.53;;
14141;SDS011;7151;52.246;4.820;2024-01-30T06:22:31;6.70;;;5.60;;
14141;SDS011;7151;52.246;4.820;2024-01-30T06:24:56;5.50;;;4.33;;
14141;SDS011;7151;52.246;4.820;2024-01-30T06:27:22;7.67;;;5.07;;
14141;SDS011;7151;52.246;4.820;2024-01-30T06:29:48;6.90;;;4.70;;
14141;SDS011;7151;52.246;4.820;2024-01-30T06:32:13;7.63;;;4.60;;
14141;SDS011;7151;52.246;4.820;2024-01-30T06:34:40;6.43;;;4.23;;
14141;SDS011;7151;52.246;4.820;2024-01-30T06:37:06;6.03;;;4.57;;
14141;SDS011;7151;52.246;4.820;2024-01-30T06:39:31;6.33;;;4.13;;
14141;SDS011;7151;52.246;4.820;2024-01-30T06:41:57;5.17;;;4.67;;
14141;SDS011;7151;52.246;4.820;2024-01-30T06:44:26;6.47;;;4.53;;
14141;SDS011;7151;52.246;4.820;2024-01-30T06:46:53;6.83;;;4.53;;
14141;SDS011;7151;52.246;4.820;2024-01-30T06:49:18;6.67;;;4.43;;
14141;SDS011;7151;52.246;4.820;2024-01-30T06:51:44;5.47;;;4.43;;
14141;SDS011;7151;52.246;4.820;2024-01-30T06:54:10;5.97;;;4.37;;
14141;SDS011;7151;52.246;4.820;2024-01-30T06:56:35;6.37;;;5.07;;
14141;SDS011;7151;52.246;4.820;2024-01-30T06:59:03;5.77;;;4.30;;
14141;SDS011;7151;52.246;4.820;2024-01-30T07:01:30;8.07;;;5.03;;
14141;SDS011;7151;52.246;4.820;2024-01-30T07:03:56;7.60;;;4.33;;
14141;SDS011;7151;52.246;4.820;2024-01-30T07:06:22;5.93;;;4.67;;
14141;SDS011;7151;52.246;4.820;2024-01-30T07:08:48;7.83;;;5.13;;
14141;SDS011;7151;52.246;4.820;2024-01-30T07:11:20;7.43;;;4.43;;
14141;SDS011;7151;52.246;4.820;2024-01-30T07:13:52;6.63;;;4.50;;
14141;SDS011;7151;52.246;4.820;2024-01-30T07:16:17;7.03;;;4.13;;
14141;SDS011;7151;52.246;4.820;2024-01-30T07:18:43;8.20;;;4.40;;
14141;SDS011;7151;52.246;4.820;2024-01-30T07:21:09;9.80;;;5.00;;
14141;SDS011;7151;52.246;4.820;2024-01-30T07:23:35;5.77;;;4.20;;
14141;SDS011;7151;52.246;4.820;2024-01-30T07:26:03;6.63;;;4.00;;
14141;SDS011;7151;52.246;4.820;2024-01-30T07:28:32;8.03;;;4.80;;
14141;SDS011;7151;52.246;4.820;2024-01-30T07:30:58;5.80;;;4.57;;
14141;SDS011;7151;52.246;4.820;2024-01-30T07:33:24;4.97;;;4.13;;
14141;SDS011;7151;52.246;4.820;2024-01-30T07:35:51;7.67;;;4.57;;
14141;SDS011;7151;52.246;4.820;2024-01-30T07:38:17;7.53;;;4.33;;
14141;SDS011;7151;52.246;4.820;2024-01-30T07:40:43;6.50;;;3.63;;
14141;SDS011;7151;52.246;4.820;2024-01-30T07:43:09;7.23;;;4.40;;
14141;SDS011;7151;52.246;4.820;2024-01-30T07:45:35;5.93;;;4.00;;
14141;SDS011;7151;52.246;4.820;2024-01-30T07:48:02;5.17;;;3.93;;
14141;SDS011;7151;52.246;4.820;2024-01-30T07:50:31;8.33;;;4.13;;
14141;SDS011;7151;52.246;4.820;2024-01-30T07:53:00;7.47;;;4.47;;
14141;SDS011;7151;52.246;4.820;2024-01-30T07:55:26;8.60;;;4.73;;
14141;SDS011;7151;52.246;4.820;2024-01-30T07:57:56;7.63;;;4.73;;
14141;SDS011;7151;52.246;4.820;2024-01-30T08:00:22;5.63;;;4.17;;
14141;SDS011;7151;52.246;4.820;2024-01-30T08:02:57;4.80;;;4.10;;
14141;SDS011;7151;52.246;4.820;2024-01-30T08:05:23;5.93;;;4.37;;
14141;SDS011;7151;52.246;4.820;2024-01-30T08:07:49;4.97;;;3.97;;
14141;SDS011;7151;52.246;4.820;2024-01-30T08:10:15;8.07;;;4.93;;
14141;SDS011;7151;52.246;4.820;2024-01-30T08:12:43;7.20;;;4.23;;
14141;SDS011;7151;52.246;4.820;2024-01-30T08:15:08;5.87;;;4.57;;
14141;SDS011;7151;52.246;4.820;2024-01-30T08:17:35;8.43;;;4.50;;
14141;SDS011;7151;52.246;4.820;2024-01-30T08:20:00;7.97;;;4.03;;
14141;SDS011;7151;52.246;4.820;2024-01-30T08:22:26;6.27;;;4.93;;
14141;SDS011;7151;52.246;4.820;2024-01-30T08:24:52;6.30;;;4.80;;
14141;SDS011;7151;52.246;4.820;2024-01-30T08:27:17;7.87;;;4.37;;
14141;SDS011;7151;52.246;4.820;2024-01-30T08:29:43;7.07;;;4.33;;
14141;SDS011;7151;52.246;4.820;2024-01-30T08:32:08;7.73;;;4.57;;
14141;SDS011;7151;52.246;4.820;2024-01-30T08:34:34;5.13;;;4.40;;
14141;SDS011;7151;52.246;4.820;2024-01-30T08:36:59;5.70;;;4.10;;
14141;SDS011;7151;52.246;4.820;2024-01-30T08:39:25;7.70;;;4.60;;
14141;SDS011;7151;52.246;4.820;2024-01-30T08:41:51;7.90;;;4.77;;
14141;SDS011;7151;52.246;4.820;2024-01-30T08:44:23;6.97;;;4.77;;
14141;SDS011;7151;52.246;4.820;2024-01-30T08:46:48;6.90;;;4.37;;
14141;SDS011;7151;52.246;4.820;2024-01-30T08:49:16;8.17;;;4.70;;
14141;SDS011;7151;52.246;4.820;2024-01-30T08:51:42;5.13;;;3.87;;
14141;SDS011;7151;52.246;4.820;2024-01-30T08:54:07;7.47;;;4.23;;
14141;SDS011;7151;52.246;4.820;2024-01-30T08:56:36;9.90;;;4.73;;
14141;SDS011;7151;52.246;4.820;2024-01-30T08:59:02;6.40;;;4.47;;
14141;SDS011;7151;52.246;4.820;2024-01-30T09:01:30;8.40;;;4.80;;
14141;SDS011;7151;52.246;4.820;2024-01-30T09:03:59;10.20;;;4.70;;
14141;SDS011;7151;52.246;4.820;2024-01-30T09:06:25;7.30;;;3.83;;
14141;SDS011;7151;52.246;4.820;2024-01-30T09:08:52;9.33;;;4.87;;
14141;SDS011;7151;52.246;4.820;2024-01-30T09:11:18;7.73;;;3.90;;
14141;SDS011;7151;52.246;4.820;2024-01-30T09:13:44;6.57;;;4.23;;
14141;SDS011;7151;52.246;4.820;2024-01-30T09:16:10;6.97;;;4.27;;
14141;SDS011;7151;52.246;4.820;2024-01-30T09:18:35;8.43;;;5.37;;
14141;SDS011;7151;52.246;4.820;2024-01-30T09:21:01;6.73;;;4.40;;
14141;SDS011;7151;52.246;4.820;2024-01-30T09:23:27;6.47;;;4.60;;
14141;SDS011;7151;52.246;4.820;2024-01-30T09:25:53;7.47;;;5.37;;
14141;SDS011;7151;52.246;4.820;2024-01-30T09:28:18;12.87;;;5.47;;
14141;SDS011;7151;52.246;4.820;2024-01-30T09:30:44;7.13;;;5.13;;
14141;SDS011;7151;52.246;4.820;2024-01-30T09:33:10;7.00;;;4.30;;
14141;SDS011;7151;52.246;4.820;2024-01-30T09:35:36;9.33;;;5.00;;
14141;SDS011;7151;52.246;4.820;2024-01-30T09:38:01;4.63;;;4.13;;
14141;SDS011;7151;52.246;4.820;2024-01-30T09:40:27;8.77;;;4.03;;
14141;SDS011;7151;52.246;4.820;2024-01-30T09:42:53;9.97;;;5.07;;
14141;SDS011;7151;52.246;4.820;2024-01-30T09:45:21;11.07;;;4.90;;
14141;SDS011;7151;52.246;4.820;2024-01-30T09:47:49;8.30;;;4.70;;
14141;SDS011;7151;52.246;4.820;2024-01-30T09:50:15;7.60;;;4.27;;
14141;SDS011;7151;52.246;4.820;2024-01-30T09:52:45;8.87;;;4.17;;
14141;SDS011;7151;52.246;4.820;2024-01-30T09:55:12;6.50;;;4.10;;
14141;SDS011;7151;52.246;4.820;2024-01-30T09:57:38;8.63;;;4.13;;
14141;SDS011;7151;52.246;4.820;2024-01-30T10:00:06;6.13;;;4.03;;
14141;SDS011;7151;52.246;4.820;2024-01-30T10:02:34;6.43;;;3.70;;
14141;SDS011;7151;52.246;4.820;2024-01-30T10:05:00;7.90;;;4.13;;
14141;SDS011;7151;52.246;4.820;2024-01-30T10:07:27;4.17;;;2.73;;
14141;SDS011;7151;52.246;4.820;2024-01-30T10:09:53;4.50;;;2.40;;
14141;SDS011;7151;52.246;4.820;2024-01-30T10:12:20;3.40;;;2.00;;
14141;SDS011;7151;52.246;4.820;2024-01-30T10:14:45;3.03;;;1.47;;
14141;SDS011;7151;52.246;4.820;2024-01-30T10:17:11;4.00;;;1.63;;
14141;SDS011;7151;52.246;4.820;2024-01-30T10:19:38;1.57;;;1.40;;
14141;SDS011;7151;52.246;4.820;2024-01-30T10:22:04;2.10;;;1.70;;
14141;SDS011;7151;52.246;4.820;2024-01-30T10:24:30;2.00;;;1.43;;
14141;SDS011;7151;52.246;4.820;2024-01-30T10:26:56;2.90;;;1.63;;
14141;SDS011;7151;52.246;4.820;2024-01-30T10:29:22;2.43;;;0.90;;
14141;SDS011;7151;52.246;4.820;2024-01-30T10:32:00;2.33;;;1.40;;
14141;SDS011;7151;52.246;4.820;2024-01-30T10:34:27;3.03;;;1.50;;
14141;SDS011;7151;52.246;4.820;2024-01-30T10:37:01;3.47;;;1.80;;
14141;SDS011;7151;52.246;4.820;2024-01-30T10:39:50;2.10;;;1.00;;
14141;SDS011;7151;52.246;4.820;2024-01-30T10:42:18;1.37;;;0.80;;
14141;SDS011;7151;52.246;4.820;2024-01-30T10:44:53;2.47;;;0.80;;
14141;SDS011;7151;52.246;4.820;2024-01-30T10:47:28;0.67;;;0.57;;
14141;SDS011;7151;52.246;4.820;2024-01-30T10:49:55;0.83;;;0.60;;
14141;SDS011;7151;52.246;4.820;2024-01-30T10:52:22;2.83;;;0.90;;
14141;SDS011;7151;52.246;4.820;2024-01-30T10:54:53;1.57;;;0.57;;
14141;SDS011;7151;52.246;4.820;2024-01-30T10:57:20;0.73;;;0.50;;
14141;SDS011;7151;52.246;4.820;2024-01-30T10:59:51;1.90;;;0.60;;
14141;SDS011;7151;52.246;4.820;2024-01-30T11:02:20;4.10;;;0.83;;
14141;SDS011;7151;52.246;4.820;2024-01-30T11:04:46;2.53;;;0.90;;
14141;SDS011;7151;52.246;4.820;2024-01-30T11:07:23;0.70;;;0.60;;
14141;SDS011;7151;52.246;4.820;2024-01-30T11:09:50;0.60;;;0.50;;
14141;SDS011;7151;52.246;4.820;2024-01-30T11:12:18;1.60;;;0.50;;
14141;SDS011;7151;52.246;4.820;2024-01-30T11:14:48;1.33;;;0.63;;
14141;SDS011;7151;52.246;4.820;2024-01-30T11:17:13;0.53;;;0.40;;
14141;SDS011;7151;52.246;4.820;2024-01-30T11:19:39;4.00;;;0.60;;
14141;SDS011;7151;52.246;4.820;2024-01-30T11:22:07;2.20;;;0.70;;
14141;SDS011;7151;52.246;4.820;2024-01-30T11:24:39;2.53;;;0.60;;
14141;SDS011;7151;52.246;4.820;2024-01-30T11:27:10;1.60;;;0.67;;
14141;SDS011;7151;52.246;4.820;2024-01-30T11:29:35;0.87;;;0.67;;
14141;SDS011;7151;52.246;4.820;2024-01-30T11:32:01;2.93;;;0.60;;
14141;SDS011;7151;52.246;4.820;2024-01-30T11:34:27;1.10;;;0.70;;
14141;SDS011;7151;52.246;4.820;2024-01-30T11:36:56;2.10;;;1.23;;
14141;SDS011;7151;52.246;4.820;2024-01-30T11:39:26;0.63;;;0.50;;
14141;SDS011;7151;52.246;4.820;2024-01-30T11:41:54;1.87;;;0.60;;
14141;SDS011;7151;52.246;4.820;2024-01-30T11:44:20;1.73;;;0.60;;
14141;SDS011;7151;52.246;4.820;2024-01-30T11:46:50;3.17;;;0.70;;
14141;SDS011;7151;52.246;4.820;2024-01-30T11:49:16;3.53;;;0.70;;
14141;SDS011;7151;52.246;4.820;2024-01-30T11:51:43;2.00;;;0.80;;
14141;SDS011;7151;52.246;4.820;2024-01-30T11:54:16;2.30;;;0.80;;
14141;SDS011;7151;52.246;4.820;2024-01-30T11:56:42;1.43;;;0.80;;
14141;SDS011;7151;52.246;4.820;2024-01-30T11:59:12;3.13;;;0.60;;
14141;SDS011;7151;52.246;4.820;2024-01-30T12:01:38;3.73;;;1.23;;
14141;SDS011;7151;52.246;4.820;2024-01-30T12:04:04;4.17;;;1.13;;
14141;SDS011;7151;52.246;4.820;2024-01-30T12:06:34;2.83;;;0.93;;
14141;SDS011;7151;52.246;4.820;2024-01-30T12:09:03;3.40;;;1.13;;
14141;SDS011;7151;52.246;4.820;2024-01-30T12:11:31;2.10;;;0.87;;
14141;SDS011;7151;52.246;4.820;2024-01-30T12:13:57;4.03;;;1.03;;
14141;SDS011;7151;52.246;4.820;2024-01-30T12:16:23;3.87;;;0.90;;
14141;SDS011;7151;52.246;4.820;2024-01-30T12:18:58;1.93;;;0.90;;
14141;SDS011;7151;52.246;4.820;2024-01-30T12:21:26;1.90;;;0.90;;
14141;SDS011;7151;52.246;4.820;2024-01-30T12:23:51;3.13;;;1.00;;
14141;SDS011;7151;52.246;4.820;2024-01-30T12:26:17;3.17;;;1.00;;
14141;SDS011;7151;52.246;4.820;2024-01-30T12:28:49;3.80;;;1.20;;
14141;SDS011;7151;52.246;4.820;2024-01-30T12:31:15;1.47;;;0.93;;
14141;SDS011;7151;52.246;4.820;2024-01-30T12:33:41;2.57;;;0.90;;
14141;SDS011;7151;52.246;4.820;2024-01-30T12:36:06;1.87;;;1.30;;
14141;SDS011;7151;52.246;4.820;2024-01-30T12:38:32;6.83;;;1.27;;
14141;SDS011;7151;52.246;4.820;2024-01-30T12:41:01;3.80;;;1.17;;
14141;SDS011;7151;52.246;4.820;2024-01-30T12:43:26;2.90;;;1.60;;
14141;SDS011;7151;52.246;4.820;2024-01-30T12:45:53;2.73;;;1.23;;
14141;SDS011;7151;52.246;4.820;2024-01-30T12:48:21;2.73;;;1.07;;
14141;SDS011;7151;52.246;4.820;2024-01-30T12:50:47;3.20;;;1.30;;
14141;SDS011;7151;52.246;4.820;2024-01-30T12:53:15;4.40;;;1.30;;
14141;SDS011;7151;52.246;4.820;2024-01-30T12:55:41;2.70;;;1.13;;
14141;SDS011;7151;52.246;4.820;2024-01-30T12:58:07;4.27;;;1.30;;
14141;SDS011;7151;52.246;4.820;2024-01-30T13:00:32;1.47;;;1.10;;
14141;SDS011;7151;52.246;4.820;2024-01-30T13:03:01;3.87;;;1.07;;
14141;SDS011;7151;52.246;4.820;2024-01-30T13:05:27;2.10;;;1.20;;
14141;SDS011;7151;52.246;4.820;2024-01-30T13:07:53;4.03;;;1.93;;
14141;SDS011;7151;52.246;4.820;2024-01-30T13:10:19;5.57;;;1.37;;
14141;SDS011;7151;52.246;4.820;2024-01-30T13:12:44;2.70;;;1.33;;
14141;SDS011;7151;52.246;4.820;2024-01-30T13:15:12;2.30;;;1.10;;
14141;SDS011;7151;52.246;4.820;2024-01-30T13:17:38;1.77;;;1.10;;
14141;SDS011;7151;52.246;4.820;2024-01-30T13:20:04;4.50;;;1.47;;
14141;SDS011;7151;52.246;4.820;2024-01-30T13:22:30;4.47;;;1.33;;
14141;SDS011;7151;52.246;4.820;2024-01-30T13:24:56;1.80;;;1.00;;
14141;SDS011;7151;52.246;4.820;2024-01-30T13:27:21;2.37;;;1.30;;
14141;SDS011;7151;52.246;4.820;2024-01-30T13:29:47;3.07;;;1.57;;
14141;SDS011;7151;52.246;4.820;2024-01-30T13:32:13;2.83;;;1.27;;
14141;SDS011;7151;52.246;4.820;2024-01-30T13:34:39;3.07;;;1.20;;
14141;SDS011;7151;52.246;4.820;2024-01-30T13:37:05;3.13;;;1.30;;
14141;SDS011;7151;52.246;4.820;2024-01-30T13:39:31;3.40;;;1.87;;
14141;SDS011;7151;52.246;4.820;2024-01-30T13:41:56;3.53;;;1.80;;
14141;SDS011;7151;52.246;4.820;2024-01-30T13:44:22;1.97;;;1.50;;
14141;SDS011;7151;52.246;4.820;2024-01-30T13:46:47;2.73;;;1.00;;
14141;SDS011;7151;52.246;4.820;2024-01-30T13:49:13;1.63;;;1.17;;
14141;SDS011;7151;52.246;4.820;2024-01-30T13:51:39;3.80;;;1.10;;
14141;SDS011;7151;52.246;4.820;2024-01-30T13:54:05;2.77;;;1.13;;
14141;SDS011;7151;52.246;4.820;2024-01-30T13:56:30;0.90;;;0.83;;
14141;SDS011;7151;52.246;4.820;2024-01-30T13:58:56;2.83;;;1.20;;
14141;SDS011;7151;52.246;4.820;2024-01-30T14:01:22;3.50;;;1.30;;
14141;SDS011;7151;52.246;4.820;2024-01-30T14:03:48;2.90;;;1.20;;
14141;SDS011;7151;52.246;4.820;2024-01-30T14:06:14;5.37;;;1.37;;
14141;SDS011;7151;52.246;4.820;2024-01-30T14:08:40;1.57;;;0.83;;
14141;SDS011;7151;52.246;4.820;2024-01-30T14:11:05;0.70;;;0.70;;
14141;SDS011;7151;52.246;4.820;2024-01-30T14:13:31;2.10;;;1.03;;
14141;SDS011;7151;52.246;4.820;2024-01-30T14:15:57;3.70;;;1.10;;
14141;SDS011;7151;52.246;4.820;2024-01-30T14:18:23;2.00;;;0.87;;
14141;SDS011;7151;52.246;4.820;2024-01-30T14:20:50;1.23;;;0.80;;
14141;SDS011;7151;52.246;4.820;2024-01-30T14:23:17;1.27;;;0.90;;
14141;SDS011;7151;52.246;4.820;2024-01-30T14:25:43;1.40;;;0.83;;
14141;SDS011;7151;52.246;4.820;2024-01-30T14:28:08;2.57;;;1.00;;
14141;SDS011;7151;52.246;4.820;2024-01-30T14:30:34;1.93;;;1.17;;
14141;SDS011;7151;52.246;4.820;2024-01-30T14:33:00;3.00;;;1.63;;
14141;SDS011;7151;52.246;4.820;2024-01-30T14:35:41;1.40;;;1.30;;
14141;SDS011;7151;52.246;4.820;2024-01-30T14:38:07;5.03;;;1.40;;
14141;SDS011;7151;52.246;4.820;2024-01-30T14:40:32;1.33;;;0.80;;
14141;SDS011;7151;52.246;4.820;2024-01-30T14:42:58;1.30;;;0.93;;
14141;SDS011;7151;52.246;4.820;2024-01-30T14:45:27;1.47;;;1.10;;
14141;SDS011;7151;52.246;4.820;2024-01-30T14:47:52;1.80;;;1.00;;
14141;SDS011;7151;52.246;4.820;2024-01-30T14:50:20;4.30;;;1.10;;
14141;SDS011;7151;52.246;4.820;2024-01-30T14:52:46;0.90;;;0.80;;
14141;SDS011;7151;52.246;4.820;2024-01-30T14:55:12;1.70;;;0.93;;
14141;SDS011;7151;52.246;4.820;2024-01-30T14:57:38;3.83;;;1.00;;